sensor_id;sensor_type;location;lat;lon;timestamp;pressure;altitude;pressure_sealevel;temperature;humidity
10176;BME280;18221;38.704;0.152;2023-08-12T00:13:12;99299.00;;;31.77;45.90
10176;BME280;18221;38.704;0.152;2023-08-12T00:15:44;99295.44;;;31.77;45.94
10176;BME280;18221;38.704;0.152;2023-08-12T00:18:12;99287.75;;;31.79;45.91
10176;BME280;18221;38.704;0.152;2023-08-12T00:20:40;99292.91;;;31.70;45.96
10176;BME280;18221;38.704;0.152;2023-08-12T00:23:08;99298.16;;;31.72;46.01
10176;BME280;18221;38.704;0.152;2023-08-12T00:25:36;99286.34;;;31.76;46.01
10176;BME280;18221;38.704;0.152;2023-08-12T00:28:05;99289.09;;;31.76;46.05
10176;BME280;18221;38.704;0.152;2023-08-12T00:30:34;99285.81;;;31.74;45.93
10176;BME280;18221;38.704;0.152;2023-08-12T00:33:03;99291.00;;;31.71;46.06
10176;BME280;18221;38.704;0.152;2023-08-12T00:35:31;99287.44;;;31.70;46.13
10176;BME280;18221;38.704;0.152;2023-08-12T00:37:59;99285.28;;;31.72;46.09
10176;BME280;18221;38.704;0.152;2023-08-12T00:40:27;99288.25;;;31.71;46.24
10176;BME280;18221;38.704;0.152;2023-08-12T00:42:55;99280.84;;;31.71;46.20
10176;BME280;18221;38.704;0.152;2023-08-12T00:45:23;99280.84;;;31.71;46.06
10176;BME280;18221;38.704;0.152;2023-08-12T00:47:54;99284.44;;;31.72;46.01
10176;BME280;18221;38.704;0.152;2023-08-12T00:50:22;99279.19;;;31.70;46.08
10176;BME280;18221;38.704;0.152;2023-08-12T00:52:50;99277.56;;;31.69;46.19
10176;BME280;18221;38.704;0.152;2023-08-12T00:55:19;99272.91;;;31.70;46.08
10176;BME280;18221;38.704;0.152;2023-08-12T00:57:47;99275.06;;;31.68;46.15
10176;BME280;18221;38.704;0.152;2023-08-12T01:00:17;99272.63;;;31.71;46.14
10176;BME280;18221;38.704;0.152;2023-08-12T01:02:48;99269.88;;;31.66;46.28
10176;BME280;18221;38.704;0.152;2023-08-12T01:05:18;99272.59;;;31.66;46.22
10176;BME280;18221;38.704;0.152;2023-08-12T01:07:46;99275.88;;;31.58;46.43
10176;BME280;18221;38.704;0.152;2023-08-12T01:10:16;99276.94;;;31.52;46.55
10176;BME280;18221;38.704;0.152;2023-08-12T01:12:50;99268.16;;;31.55;46.48
10176;BME280;18221;38.704;0.152;2023-08-12T01:15:22;99265.41;;;31.45;46.50
10176;BME280;18221;38.704;0.152;2023-08-12T01:17:54;99266.53;;;31.49;46.31
10176;BME280;18221;38.704;0.152;2023-08-12T01:20:26;99268.16;;;31.50;46.28
10176;BME280;18221;38.704;0.152;2023-08-12T01:23:07;99264.03;;;31.48;46.16
10176;BME280;18221;38.704;0.152;2023-08-12T01:25:36;99258.78;;;31.41;46.31
10176;BME280;18221;38.704;0.152;2023-08-12T01:28:05;99254.34;;;31.35;46.37
10176;BME280;18221;38.704;0.152;2023-08-12T01:30:39;99254.34;;;31.35;46.39
10176;BME280;18221;38.704;0.152;2023-08-12T01:33:19;99251.06;;;31.33;46.48
10176;BME280;18221;38.704;0.152;2023-08-12T01:35:59;99248.56;;;31.32;46.49
10176;BME280;18221;38.704;0.152;2023-08-12T01:38:35;99251.59;;;31.35;46.29
10176;BME280;18221;38.704;0.152;2023-08-12T01:41:08;99245.28;;;31.35;45.88
10176;BME280;18221;38.704;0.152;2023-08-12T01:43:38;99247.50;;;31.38;45.87
10176;BME280;18221;38.704;0.152;2023-08-12T01:46:06;99243.38;;;31.35;45.62
10176;BME280;18221;38.704;0.152;2023-08-12T01:48:34;99240.34;;;31.32;45.10
10176;BME280;18221;38.704;0.152;2023-08-12T01:51:02;99230.72;;;31.29;44.58
10176;BME280;18221;38.704;0.152;2023-08-12T01:53:35;99237.88;;;31.30;44.22
10176;BME280;18221;38.704;0.152;2023-08-12T01:56:03;99234.28;;;31.30;43.39
10176;BME280;18221;38.704;0.152;2023-08-12T01:58:31;99230.16;;;31.27;43.40
10176;BME280;18221;38.704;0.152;2023-08-12T02:00:59;99224.66;;;31.17;42.94
10176;BME280;18221;38.704;0.152;2023-08-12T02:03:27;99227.91;;;31.09;43.06
10176;BME280;18221;38.704;0.152;2023-08-12T02:05:55;99222.97;;;31.11;42.96
10176;BME280;18221;38.704;0.152;2023-08-12T02:08:23;99222.97;;;31.16;42.81
10176;BME280;18221;38.704;0.152;2023-08-12T02:10:52;99216.41;;;31.17;42.70
10176;BME280;18221;38.704;0.152;2023-08-12T02:13:20;99219.69;;;31.14;42.45
10176;BME280;18221;38.704;0.152;2023-08-12T02:15:48;99214.47;;;31.12;41.95
10176;BME280;18221;38.704;0.152;2023-08-12T02:18:16;99204.28;;;31.08;41.95
10176;BME280;18221;38.704;0.152;2023-08-12T02:20:46;99201.59;;;31.13;41.27
10176;BME280;18221;38.704;0.152;2023-08-12T02:23:14;99205.72;;;31.15;40.80
10176;BME280;18221;38.704;0.152;2023-08-12T02:25:42;99196.66;;;31.15;40.43
10176;BME280;18221;38.704;0.152;2023-08-12T02:28:12;99199.13;;;31.16;40.10
10176;BME280;18221;38.704;0.152;2023-08-12T02:30:42;99202.41;;;31.18;39.75
10176;BME280;18221;38.704;0.152;2023-08-12T02:33:10;99198.56;;;31.14;39.61
10176;BME280;18221;38.704;0.152;2023-08-12T02:35:38;99192.53;;;31.12;39.48
10176;BME280;18221;38.704;0.152;2023-08-12T02:38:07;99203.75;;;31.11;39.33
10176;BME280;18221;38.704;0.152;2023-08-12T02:40:34;99202.69;;;31.12;39.10
10176;BME280;18221;38.704;0.152;2023-08-12T02:43:03;99198.03;;;31.12;39.17
10176;BME280;18221;38.704;0.152;2023-08-12T02:45:32;99198.03;;;31.12;38.82
10176;BME280;18221;38.704;0.152;2023-08-12T02:48:00;99199.13;;;31.16;38.88
10176;BME280;18221;38.704;0.152;2023-08-12T02:50:29;99201.03;;;31.16;38.66
10176;BME280;18221;38.704;0.152;2023-08-12T02:52:57;99203.22;;;31.09;38.53
10176;BME280;18221;38.704;0.152;2023-08-12T02:55:25;99198.28;;;31.11;38.65
10176;BME280;18221;38.704;0.152;2023-08-12T02:57:53;99204.06;;;31.14;38.18
10176;BME280;18221;38.704;0.152;2023-08-12T03:00:21;99203.22;;;31.14;38.47
10176;BME280;18221;38.704;0.152;2023-08-12T03:02:51;99198.81;;;31.08;38.21
10176;BME280;18221;38.704;0.152;2023-08-12T03:05:19;99194.44;;;31.12;38.32
10176;BME280;18221;38.704;0.152;2023-08-12T03:07:47;99200.50;;;31.14;38.21
10176;BME280;18221;38.704;0.152;2023-08-12T03:10:15;99197.19;;;31.07;38.36
10176;BME280;18221;38.704;0.152;2023-08-12T03:12:43;99196.03;;;31.03;38.41
10176;BME280;18221;38.704;0.152;2023-08-12T03:15:11;99186.72;;;30.99;38.58
10176;BME280;18221;38.704;0.152;2023-08-12T03:17:39;99186.69;;;30.94;38.49
10176;BME280;18221;38.704;0.152;2023-08-12T03:20:10;99183.41;;;30.92;38.94
10176;BME280;18221;38.704;0.152;2023-08-12T03:22:39;99181.75;;;30.91;38.93
10176;BME280;18221;38.704;0.152;2023-08-12T03:25:08;99182.25;;;30.88;38.94
10176;BME280;18221;38.704;0.152;2023-08-12T03:27:36;99180.59;;;30.87;39.73
10176;BME280;18221;38.704;0.152;2023-08-12T03:30:05;99192.13;;;30.89;39.93
10176;BME280;18221;38.704;0.152;2023-08-12T03:32:35;99184.16;;;30.87;40.07
10176;BME280;18221;38.704;0.152;2023-08-12T03:35:04;99182.00;;;30.89;40.60
10176;BME280;18221;38.704;0.152;2023-08-12T03:37:34;99181.16;;;30.89;40.60
10176;BME280;18221;38.704;0.152;2023-08-12T03:40:02;99179.00;;;30.91;40.46
10176;BME280;18221;38.704;0.152;2023-08-12T03:42:30;99183.41;;;30.92;40.03
10176;BME280;18221;38.704;0.152;2023-08-12T03:44:59;99189.44;;;30.94;40.22
10176;BME280;18221;38.704;0.152;2023-08-12T03:47:29;99185.88;;;30.93;40.10
10176;BME280;18221;38.704;0.152;2023-08-12T03:49:57;99188.84;;;30.87;40.25
10176;BME280;18221;38.704;0.152;2023-08-12T03:52:25;99186.09;;;30.87;40.29
10176;BME280;18221;38.704;0.152;2023-08-12T03:54:55;99188.25;;;30.85;40.52
10176;BME280;18221;38.704;0.152;2023-08-12T03:57:23;99184.41;;;30.81;40.43
10176;BME280;18221;38.704;0.152;2023-08-12T03:59:51;99178.63;;;30.82;40.54
10176;BME280;18221;38.704;0.152;2023-08-12T04:02:19;99178.94;;;30.86;40.63
10176;BME280;18221;38.704;0.152;2023-08-12T04:04:47;99177.91;;;30.92;40.71
10176;BME280;18221;38.704;0.152;2023-08-12T04:07:15;99180.38;;;30.93;40.88
10176;BME280;18221;38.704;0.152;2023-08-12T04:09:43;99172.94;;;30.89;40.98
10176;BME280;18221;38.704;0.152;2023-08-12T04:12:12;99170.53;;;30.97;40.90
10176;BME280;18221;38.704;0.152;2023-08-12T04:14:40;99176.56;;;30.99;40.99
10176;BME280;18221;38.704;0.152;2023-08-12T04:17:08;99169.44;;;31.03;40.97
10176;BME280;18221;38.704;0.152;2023-08-12T04:19:36;99173.84;;;31.04;41.11
10176;BME280;18221;38.704;0.152;2023-08-12T04:22:05;99161.50;;;31.02;41.44
10176;BME280;18221;38.704;0.152;2023-08-12T04:24:33;99170.28;;;31.04;41.62
10176;BME280;18221;38.704;0.152;2023-08-12T04:27:01;99164.78;;;31.04;41.89
10176;BME280;18221;38.704;0.152;2023-08-12T04:29:30;99175.47;;;31.00;42.07
10176;BME280;18221;38.704;0.152;2023-08-12T04:31:58;99169.97;;;31.00;42.46
10176;BME280;18221;38.704;0.152;2023-08-12T04:34:26;99179.59;;;31.03;42.57
10176;BME280;18221;38.704;0.152;2023-08-12T04:36:54;99180.69;;;31.02;42.91
10176;BME280;18221;38.704;0.152;2023-08-12T04:39:22;99189.75;;;31.02;43.17
10176;BME280;18221;38.704;0.152;2023-08-12T04:41:51;99185.91;;;31.03;43.57
10176;BME280;18221;38.704;0.152;2023-08-12T04:44:19;99187.53;;;30.99;44.12
10176;BME280;18221;38.704;0.152;2023-08-12T04:46:49;99189.09;;;30.90;44.69
10176;BME280;18221;38.704;0.152;2023-08-12T04:49:17;99193.72;;;30.85;44.84
10176;BME280;18221;38.704;0.152;2023-08-12T04:51:45;99189.59;;;30.82;45.20
10176;BME280;18221;38.704;0.152;2023-08-12T04:54:13;99191.81;;;30.85;45.07
10176;BME280;18221;38.704;0.152;2023-08-12T04:56:41;99196.44;;;30.80;45.70
10176;BME280;18221;38.704;0.152;2023-08-12T04:59:09;99196.41;;;30.75;46.16
10176;BME280;18221;38.704;0.152;2023-08-12T05:01:37;99195.03;;;30.72;46.19
10176;BME280;18221;38.704;0.152;2023-08-12T05:04:07;99190.09;;;30.69;46.58
10176;BME280;18221;38.704;0.152;2023-08-12T05:06:35;99185.97;;;30.67;46.61
10176;BME280;18221;38.704;0.152;2023-08-12T05:09:03;99178.53;;;30.62;47.06
10176;BME280;18221;38.704;0.152;2023-08-12T05:11:32;99187.06;;;30.66;47.06
10176;BME280;18221;38.704;0.152;2023-08-12T05:14:00;99186.25;;;30.65;47.30
10176;BME280;18221;38.704;0.152;2023-08-12T05:16:29;99182.34;;;30.61;47.46
10176;BME280;18221;38.704;0.152;2023-08-12T05:18:57;99167.56;;;30.62;47.57
10176;BME280;18221;38.704;0.152;2023-08-12T05:21:27;99178.31;;;30.69;47.40
10176;BME280;18221;38.704;0.152;2023-08-12T05:23:55;99176.09;;;30.66;47.83
10176;BME280;18221;38.704;0.152;2023-08-12T05:26:23;99190.34;;;30.63;47.61
10176;BME280;18221;38.704;0.152;2023-08-12T05:28:51;99189.22;;;30.64;47.34
10176;BME280;18221;38.704;0.152;2023-08-12T05:31:19;99194.19;;;30.67;47.66
10176;BME280;18221;38.704;0.152;2023-08-12T05:33:47;99199.13;;;30.70;47.49
10176;BME280;18221;38.704;0.152;2023-08-12T05:36:15;99192.56;;;30.71;47.78
10176;BME280;18221;38.704;0.152;2023-08-12T05:38:45;99200.00;;;30.75;47.89
10176;BME280;18221;38.704;0.152;2023-08-12T05:41:12;99199.72;;;30.77;47.80
10176;BME280;18221;38.704;0.152;2023-08-12T05:43:40;99198.63;;;30.73;47.62
10176;BME280;18221;38.704;0.152;2023-08-12T05:46:08;99201.03;;;30.69;48.08
10176;BME280;18221;38.704;0.152;2023-08-12T05:48:36;99192.84;;;30.74;48.00
10176;BME280;18221;38.704;0.152;2023-08-12T05:51:04;99190.97;;;30.80;48.03
10176;BME280;18221;38.704;0.152;2023-08-12T05:53:32;99201.94;;;30.80;48.13
10176;BME280;18221;38.704;0.152;2023-08-12T05:56:02;99196.47;;;30.85;47.85
10176;BME280;18221;38.704;0.152;2023-08-12T05:58:30;99198.13;;;30.86;47.65
10176;BME280;18221;38.704;0.152;2023-08-12T06:00:58;99198.13;;;30.81;47.67
10176;BME280;18221;38.704;0.152;2023-08-12T06:03:26;99203.28;;;30.77;48.25
10176;BME280;18221;38.704;0.152;2023-08-12T06:05:54;99192.88;;;30.79;47.87
10176;BME280;18221;38.704;0.152;2023-08-12T06:08:22;99199.22;;;30.85;47.80
10176;BME280;18221;38.704;0.152;2023-08-12T06:10:50;99205.63;;;30.95;47.76
10176;BME280;18221;38.704;0.152;2023-08-12T06:13:19;99199.34;;;31.00;47.83
10176;BME280;18221;38.704;0.152;2023-08-12T06:15:47;99202.63;;;31.02;47.47
10176;BME280;18221;38.704;0.152;2023-08-12T06:18:15;99205.38;;;31.02;47.74
10176;BME280;18221;38.704;0.152;2023-08-12T06:20:46;99204.28;;;31.03;47.76
10176;BME280;18221;38.704;0.152;2023-08-12T06:23:15;99198.00;;;31.07;47.72
10176;BME280;18221;38.704;0.152;2023-08-12T06:25:43;99205.94;;;31.09;47.64
10176;BME280;18221;38.704;0.152;2023-08-12T06:28:13;99204.28;;;31.08;47.78
10176;BME280;18221;38.704;0.152;2023-08-12T06:30:45;99212.00;;;31.16;47.91
10176;BME280;18221;38.704;0.152;2023-08-12T06:33:14;99212.28;;;31.09;48.21
10176;BME280;18221;38.704;0.152;2023-08-12T06:35:42;99217.22;;;31.07;48.58
10176;BME280;18221;38.704;0.152;2023-08-12T06:38:11;99226.16;;;30.93;49.25
10176;BME280;18221;38.704;0.152;2023-08-12T06:40:40;99219.13;;;31.07;49.29
10176;BME280;18221;38.704;0.152;2023-08-12T06:43:08;99229.03;;;31.13;48.94
10176;BME280;18221;38.704;0.152;2023-08-12T06:45:35;99236.69;;;31.16;48.84
10176;BME280;18221;38.704;0.152;2023-08-12T06:48:06;99238.63;;;31.15;48.78
10176;BME280;18221;38.704;0.152;2023-08-12T06:50:34;99244.88;;;31.06;49.14
10176;BME280;18221;38.704;0.152;2023-08-12T06:53:02;99244.69;;;31.23;48.57
10176;BME280;18221;38.704;0.152;2023-08-12T06:55:29;99244.81;;;31.48;47.97
10176;BME280;18221;38.704;0.152;2023-08-12T06:57:57;99245.94;;;31.52;47.32
10176;BME280;18221;38.704;0.152;2023-08-12T07:00:25;99240.22;;;31.68;47.14
10176;BME280;18221;38.704;0.152;2023-08-12T07:02:54;99246.53;;;31.74;46.90
10176;BME280;18221;38.704;0.152;2023-08-12T07:05:23;99249.28;;;31.69;46.37
10176;BME280;18221;38.704;0.152;2023-08-12T07:07:51;99255.81;;;31.53;46.97
10176;BME280;18221;38.704;0.152;2023-08-12T07:10:21;99259.94;;;31.55;46.67
10176;BME280;18221;38.704;0.152;2023-08-12T07:12:49;99256.94;;;31.62;46.62
10176;BME280;18221;38.704;0.152;2023-08-12T07:15:17;99264.69;;;31.75;46.42
10176;BME280;18221;38.704;0.152;2023-08-12T07:17:45;99269.06;;;31.76;46.20
10176;BME280;18221;38.704;0.152;2023-08-12T07:20:13;99266.06;;;31.77;46.32
10176;BME280;18221;38.704;0.152;2023-08-12T07:22:42;99268.28;;;31.86;46.15
10176;BME280;18221;38.704;0.152;2023-08-12T07:25:11;99263.06;;;31.94;45.90
10176;BME280;18221;38.704;0.152;2023-08-12T07:27:39;99257.06;;;32.02;45.50
10176;BME280;18221;38.704;0.152;2023-08-12T07:30:08;99252.69;;;32.06;45.38
10176;BME280;18221;38.704;0.152;2023-08-12T07:32:37;99257.06;;;32.12;45.38
10176;BME280;18221;38.704;0.152;2023-08-12T07:35:06;99248.56;;;32.09;45.48
10176;BME280;18221;38.704;0.152;2023-08-12T07:37:34;99252.94;;;32.10;45.48
10176;BME280;18221;38.704;0.152;2023-08-12T07:40:05;99249.41;;;32.19;45.74
10176;BME280;18221;38.704;0.152;2023-08-12T07:42:33;99251.59;;;32.27;45.48
10176;BME280;18221;38.704;0.152;2023-08-12T07:45:01;99258.19;;;32.62;45.06
10176;BME280;18221;38.704;0.152;2023-08-12T07:47:29;99256.78;;;32.84;44.25
10176;BME280;18221;38.704;0.152;2023-08-12T07:49:57;99265.19;;;33.33;43.69
10176;BME280;18221;38.704;0.152;2023-08-12T07:52:25;99269.72;;;33.73;41.93
10176;BME280;18221;38.704;0.152;2023-08-12T07:54:53;99269.22;;;34.49;40.68
10176;BME280;18221;38.704;0.152;2023-08-12T07:57:23;99272.31;;;35.00;39.15
10176;BME280;18221;38.704;0.152;2023-08-12T07:59:51;99273.81;;;35.16;38.43
10176;BME280;18221;38.704;0.152;2023-08-12T08:02:19;99278.03;;;35.08;38.53
10176;BME280;18221;38.704;0.152;2023-08-12T08:04:47;99288.13;;;35.42;37.99
10176;BME280;18221;38.704;0.152;2023-08-12T08:07:15;99284.34;;;35.61;37.76
10176;BME280;18221;38.704;0.152;2023-08-12T08:09:44;99276.75;;;35.48;37.48
10176;BME280;18221;38.704;0.152;2023-08-12T08:12:12;99279.28;;;35.21;37.80
10176;BME280;18221;38.704;0.152;2023-08-12T08:14:41;99274.91;;;35.15;37.60
10176;BME280;18221;38.704;0.152;2023-08-12T08:17:09;99264.94;;;35.43;36.76
10176;BME280;18221;38.704;0.152;2023-08-12T08:19:37;99275.75;;;35.63;36.79
10176;BME280;18221;38.704;0.152;2023-08-12T08:22:05;99277.53;;;35.49;36.70
10176;BME280;18221;38.704;0.152;2023-08-12T08:24:33;99280.22;;;35.35;37.19
10176;BME280;18221;38.704;0.152;2023-08-12T08:27:01;99282.94;;;35.16;37.92
10176;BME280;18221;38.704;0.152;2023-08-12T08:29:30;99286.94;;;35.00;38.17
10176;BME280;18221;38.704;0.152;2023-08-12T08:32:00;99279.41;;;34.82;38.97
10176;BME280;18221;38.704;0.152;2023-08-12T08:34:28;99282.41;;;34.52;39.01
10176;BME280;18221;38.704;0.152;2023-08-12T08:36:56;99280.56;;;34.42;39.57
10176;BME280;18221;38.704;0.152;2023-08-12T08:39:24;99286.84;;;34.48;39.42
10176;BME280;18221;38.704;0.152;2023-08-12T08:41:54;99284.59;;;34.16;39.91
10176;BME280;18221;38.704;0.152;2023-08-12T08:44:23;99291.34;;;33.95;40.21
10176;BME280;18221;38.704;0.152;2023-08-12T08:46:53;99285.34;;;33.83;40.47
10176;BME280;18221;38.704;0.152;2023-08-12T08:49:23;99285.94;;;33.75;41.01
10176;BME280;18221;38.704;0.152;2023-08-12T08:51:52;99295.59;;;33.72;40.81
10176;BME280;18221;38.704;0.152;2023-08-12T08:54:21;99301.72;;;33.59;41.35
10176;BME280;18221;38.704;0.152;2023-08-12T08:56:50;99300.91;;;33.59;41.41
10176;BME280;18221;38.704;0.152;2023-08-12T08:59:18;99309.50;;;33.37;42.20
10176;BME280;18221;38.704;0.152;2023-08-12T09:01:49;99317.75;;;33.37;41.77
10176;BME280;18221;38.704;0.152;2023-08-12T09:04:23;99311.38;;;33.51;42.05
10176;BME280;18221;38.704;0.152;2023-08-12T09:06:52;99313.03;;;33.52;41.55
10176;BME280;18221;38.704;0.152;2023-08-12T09:09:22;99310.50;;;33.66;41.26
10176;BME280;18221;38.704;0.152;2023-08-12T09:11:53;99315.13;;;33.81;40.78
10176;BME280;18221;38.704;0.152;2023-08-12T09:14:23;99311.75;;;33.94;41.05
10176;BME280;18221;38.704;0.152;2023-08-12T09:16:51;99317.84;;;33.86;41.19
10176;BME280;18221;38.704;0.152;2023-08-12T09:19:19;99320.28;;;33.92;41.07
10176;BME280;18221;38.704;0.152;2023-08-12T09:21:52;99321.63;;;33.95;41.23
10176;BME280;18221;38.704;0.152;2023-08-12T09:24:25;99328.50;;;34.07;41.05
10176;BME280;18221;38.704;0.152;2023-08-12T09:26:54;99330.19;;;33.93;41.11
10176;BME280;18221;38.704;0.152;2023-08-12T09:29:23;99320.50;;;34.01;40.82
10176;BME280;18221;38.704;0.152;2023-08-12T09:31:54;99315.53;;;34.03;41.22
10176;BME280;18221;38.704;0.152;2023-08-12T09:34:33;99321.81;;;34.19;40.52
10176;BME280;18221;38.704;0.152;2023-08-12T09:37:04;99309.56;;;34.35;39.84
10176;BME280;18221;38.704;0.152;2023-08-12T09:39:32;99313.69;;;34.37;39.62
10176;BME280;18221;38.704;0.152;2023-08-12T09:42:00;99326.75;;;34.22;40.16
10176;BME280;18221;38.704;0.152;2023-08-12T09:44:29;99316.34;;;34.47;39.69
10176;BME280;18221;38.704;0.152;2023-08-12T09:46:57;99317.19;;;34.48;39.87
10176;BME280;18221;38.704;0.152;2023-08-12T09:49:26;99316.75;;;34.36;39.90
10176;BME280;18221;38.704;0.152;2023-08-12T09:51:55;99311.94;;;34.51;39.44
10176;BME280;18221;38.704;0.152;2023-08-12T09:54:27;99314.31;;;34.63;39.26
10176;BME280;18221;38.704;0.152;2023-08-12T09:56:59;99307.03;;;34.43;39.90
10176;BME280;18221;38.704;0.152;2023-08-12T09:59:31;99313.31;;;34.15;39.61
10176;BME280;18221;38.704;0.152;2023-08-12T10:02:01;99310.44;;;33.81;40.59
10176;BME280;18221;38.704;0.152;2023-08-12T10:04:37;99318.06;;;33.99;40.77
10176;BME280;18221;38.704;0.152;2023-08-12T10:07:09;99314.63;;;34.23;40.28
10176;BME280;18221;38.704;0.152;2023-08-12T10:09:40;99305.94;;;34.39;40.23
10176;BME280;18221;38.704;0.152;2023-08-12T10:12:09;99297.97;;;34.38;39.93
10176;BME280;18221;38.704;0.152;2023-08-12T10:14:38;99312.69;;;34.23;40.63
10176;BME280;18221;38.704;0.152;2023-08-12T10:17:07;99301.88;;;34.32;40.13
10176;BME280;18221;38.704;0.152;2023-08-12T10:19:37;99296.72;;;34.59;39.82
10176;BME280;18221;38.704;0.152;2023-08-12T10:22:06;99287.19;;;34.75;39.62
10176;BME280;18221;38.704;0.152;2023-08-12T10:24:40;99289.41;;;34.73;39.31
10176;BME280;18221;38.704;0.152;2023-08-12T10:27:10;99292.41;;;34.77;39.14
10176;BME280;18221;38.704;0.152;2023-08-12T10:29:42;99289.66;;;34.77;39.23
10176;BME280;18221;38.704;0.152;2023-08-12T10:32:11;99286.94;;;35.00;38.65
10176;BME280;18221;38.704;0.152;2023-08-12T10:34:39;99282.88;;;34.93;38.13
10176;BME280;18221;38.704;0.152;2023-08-12T10:37:10;99280.81;;;34.80;39.24
10176;BME280;18221;38.704;0.152;2023-08-12T10:39:40;99282.41;;;34.52;39.30
10176;BME280;18221;38.704;0.152;2023-08-12T10:42:08;99278.53;;;34.53;39.44
10176;BME280;18221;38.704;0.152;2023-08-12T10:44:49;99272.47;;;34.56;39.84
10176;BME280;18221;38.704;0.152;2023-08-12T10:47:18;99275.34;;;34.41;38.83
10176;BME280;18221;38.704;0.152;2023-08-12T10:49:49;99270.09;;;34.00;39.32
10176;BME280;18221;38.704;0.152;2023-08-12T10:52:27;99260.38;;;34.18;39.98
10176;BME280;18221;38.704;0.152;2023-08-12T10:55:17;99263.13;;;34.18;40.10
10176;BME280;18221;38.704;0.152;2023-08-12T10:57:46;99262.44;;;34.36;38.84
10176;BME280;18221;38.704;0.152;2023-08-12T11:00:15;99263.25;;;34.32;39.47
10176;BME280;18221;38.704;0.152;2023-08-12T11:02:49;99262.91;;;34.43;38.71
10176;BME280;18221;38.704;0.152;2023-08-12T11:05:19;99255.72;;;34.08;39.97
10176;BME280;18221;38.704;0.152;2023-08-12T11:07:55;99254.91;;;34.08;40.15
10176;BME280;18221;38.704;0.152;2023-08-12T11:10:26;99256.22;;;34.15;39.64
10176;BME280;18221;38.704;0.152;2023-08-12T11:12:56;99261.28;;;33.98;40.00
10176;BME280;18221;38.704;0.152;2023-08-12T11:15:32;99259.25;;;33.70;40.17
10176;BME280;18221;38.704;0.152;2023-08-12T11:18:03;99259.78;;;33.72;40.07
10176;BME280;18221;38.704;0.152;2023-08-12T11:20:32;99251.53;;;33.72;40.37
10176;BME280;18221;38.704;0.152;2023-08-12T11:23:01;99247.94;;;33.72;40.08
10176;BME280;18221;38.704;0.152;2023-08-12T11:25:34;99253.44;;;33.77;40.78
10176;BME280;18221;38.704;0.152;2023-08-12T11:28:04;99247.84;;;33.92;40.32
10176;BME280;18221;38.704;0.152;2023-08-12T11:30:32;99242.63;;;33.85;40.43
10176;BME280;18221;38.704;0.152;2023-08-12T11:33:02;99241.97;;;34.03;40.35
10176;BME280;18221;38.704;0.152;2023-08-12T11:35:30;99238.94;;;34.05;39.90
10176;BME280;18221;38.704;0.152;2023-08-12T11:38:00;99223.88;;;34.26;40.10
10176;BME280;18221;38.704;0.152;2023-08-12T11:40:29;99225.06;;;34.20;39.79
10176;BME280;18221;38.704;0.152;2023-08-12T11:42:59;99226.38;;;34.28;39.58
10176;BME280;18221;38.704;0.152;2023-08-12T11:45:27;99222.75;;;34.32;40.56
10176;BME280;18221;38.704;0.152;2023-08-12T11:47:55;99210.31;;;34.35;39.17
10176;BME280;18221;38.704;0.152;2023-08-12T11:50:25;99212.44;;;34.43;39.61
10176;BME280;18221;38.704;0.152;2023-08-12T11:52:55;99211.16;;;34.35;39.63
10176;BME280;18221;38.704;0.152;2023-08-12T11:55:25;99198.66;;;34.43;39.76
10176;BME280;18221;38.704;0.152;2023-08-12T11:57:53;99200.66;;;34.66;39.26
10176;BME280;18221;38.704;0.152;2023-08-12T12:00:26;99203.88;;;34.78;39.26
10176;BME280;18221;38.704;0.152;2023-08-12T12:02:55;99199.06;;;34.60;38.83
10176;BME280;18221;38.704;0.152;2023-08-12T12:05:26;99203.03;;;34.78;39.40
10176;BME280;18221;38.704;0.152;2023-08-12T12:07:55;99203.56;;;34.80;39.60
10176;BME280;18221;38.704;0.152;2023-08-12T12:10:29;99195.84;;;34.77;39.31
10176;BME280;18221;38.704;0.152;2023-08-12T12:12:59;99191.00;;;34.92;38.99
10176;BME280;18221;38.704;0.152;2023-08-12T12:15:31;99188.53;;;34.91;39.13
10176;BME280;18221;38.704;0.152;2023-08-12T12:18:10;99188.28;;;34.87;39.53
10176;BME280;18221;38.704;0.152;2023-08-12T12:20:54;99176.59;;;34.95;39.26
10176;BME280;18221;38.704;0.152;2023-08-12T12:23:27;99178.84;;;34.93;39.16
10176;BME280;18221;38.704;0.152;2023-08-12T12:25:59;99182.19;;;34.90;39.44
10176;BME280;18221;38.704;0.152;2023-08-12T12:28:27;99174.38;;;34.73;39.38
10176;BME280;18221;38.704;0.152;2023-08-12T12:30:57;99176.34;;;34.68;39.98
10176;BME280;18221;38.704;0.152;2023-08-12T12:33:25;99180.03;;;34.30;40.56
10176;BME280;18221;38.704;0.152;2023-08-12T12:35:53;99167.97;;;34.26;39.81
10176;BME280;18221;38.704;0.152;2023-08-12T12:38:22;99166.19;;;34.35;40.19
10176;BME280;18221;38.704;0.152;2023-08-12T12:40:49;99159.94;;;34.53;39.91
10176;BME280;18221;38.704;0.152;2023-08-12T12:43:17;99164.28;;;34.64;39.44
10176;BME280;18221;38.704;0.152;2023-08-12T12:45:45;99157.56;;;34.46;39.88
10176;BME280;18221;38.704;0.152;2023-08-12T12:48:15;99154.91;;;34.65;39.55
10176;BME280;18221;38.704;0.152;2023-08-12T12:50:43;99155.19;;;34.87;38.70
10176;BME280;18221;38.704;0.152;2023-08-12T12:53:11;99147.50;;;34.84;39.35
10176;BME280;18221;38.704;0.152;2023-08-12T12:55:38;99143.81;;;34.70;39.61
10176;BME280;18221;38.704;0.152;2023-08-12T12:58:07;99143.97;;;34.79;39.30
10176;BME280;18221;38.704;0.152;2023-08-12T13:00:35;99140.41;;;34.78;39.19
10176;BME280;18221;38.704;0.152;2023-08-12T13:03:04;99126.31;;;34.80;39.15
10176;BME280;18221;38.704;0.152;2023-08-12T13:05:33;99135.00;;;34.68;39.53
10176;BME280;18221;38.704;0.152;2023-08-12T13:08:01;99138.44;;;34.79;39.15
10176;BME280;18221;38.704;0.152;2023-08-12T13:10:29;99137.75;;;34.68;39.17
10176;BME280;18221;38.704;0.152;2023-08-12T13:12:57;99140.56;;;34.63;39.62
10176;BME280;18221;38.704;0.152;2023-08-12T13:15:25;99137.66;;;34.78;39.24
10176;BME280;18221;38.704;0.152;2023-08-12T13:17:53;99148.69;;;34.78;39.73
10176;BME280;18221;38.704;0.152;2023-08-12T13:20:22;99147.44;;;34.89;39.28
10176;BME280;18221;38.704;0.152;2023-08-12T13:22:52;99146.59;;;34.89;39.39